Time;durP1;ratioP1;P1;durP2;ratioP2;P2;SDS_P1;SDS_P2;PMS_P1;PMS_P2;Temp;Humidity;BMP_temperature;BMP_pressure;BME280_temperature;BME280_humidity;BME280_pressure;Samples;Min_cycle;Max_cycle;Signal;HPM_P1;HPM_P2
2021/10/16 00:02:17;;;;;;;17.80;6.32;;;12.70;96.30;;;;;;5080239;28;20194;-76
2021/10/16 00:04:43;;;;;;;15.50;5.53;;;12.70;96.30;;;;;;5067497;28;20609;-76
2021/10/16 00:07:09;;;;;;;16.77;6.13;;;12.70;96.30;;;;;;5058572;28;20210;-76
2021/10/16 00:09:34;;;;;;;17.35;5.55;;;12.70;96.30;;;;;;5067368;28;20201;-75
2021/10/16 00:12:00;;;;;;;17.33;5.82;;;12.70;96.30;;;;;;5060962;28;20370;-77
2021/10/16 00:14:26;;;;;;;20.50;5.97;;;12.70;96.40;;;;;;5046430;28;20443;-75
2021/10/16 00:16:52;;;;;;;21.52;6.40;;;13.20;96.30;;;;;;5061697;28;20257;-74
2021/10/16 00:19:17;;;;;;;22.77;5.93;;;13.10;96.40;;;;;;5069470;28;20188;-74
2021/10/16 00:21:43;;;;;;;20.20;6.32;;;13.00;96.60;;;;;;5066180;28;20261;-76
2021/10/16 00:24:09;;;;;;;23.08;6.55;;;12.90;96.70;;;;;;5074750;28;20252;-76
2021/10/16 00:26:35;;;;;;;18.27;5.72;;;12.90;96.80;;;;;;5064224;28;20198;-75
2021/10/16 00:29:00;;;;;;;24.63;6.70;;;12.80;96.80;;;;;;5063146;28;20311;-76
2021/10/16 00:31:26;;;;;;;20.80;6.00;;;12.80;96.90;;;;;;5065099;28;20555;-76
2021/10/16 00:33:52;;;;;;;17.98;6.28;;;12.80;96.90;;;;;;5047133;28;20203;-76
2021/10/16 00:36:18;;;;;;;22.88;5.85;;;12.70;96.90;;;;;;5082435;28;20186;-75
2021/10/16 00:38:43;;;;;;;21.13;5.70;;;12.80;97.00;;;;;;5063139;28;20179;-76
2021/10/16 00:41:11;;;;;;;25.13;5.90;;;12.70;97.00;;;;;;5043923;28;20285;-77
2021/10/16 00:43:37;;;;;;;22.88;5.28;;;12.70;97.00;;;;;;5043322;28;20187;-75
2021/10/16 00:46:03;;;;;;;15.98;4.28;;;12.70;97.00;;;;;;5063310;28;20217;-75
2021/10/16 00:48:28;;;;;;;20.45;4.40;;;12.70;96.90;;;;;;5055626;28;20536;-75
2021/10/16 00:50:54;;;;;;;17.08;3.97;;;12.60;96.80;;;;;;5063475;28;20289;-76
2021/10/16 00:53:20;;;;;;;21.45;4.18;;;12.60;96.60;;;;;;5041574;28;20977;-74
2021/10/16 00:55:48;;;;;;;17.95;3.75;;;12.60;96.40;;;;;;5066422;28;20182;-77
2021/10/16 00:58:14;;;;;;;18.38;4.25;;;12.60;96.20;;;;;;5076368;28;20191;-74
2021/10/16 01:00:40;;;;;;;17.05;4.10;;;12.60;96.00;;;;;;5065795;28;20178;-75
2021/10/16 01:03:06;;;;;;;21.23;4.15;;;12.60;95.90;;;;;;5045996;28;20222;-76
2021/10/16 01:05:34;;;;;;;17.25;4.40;;;12.60;95.80;;;;;;5066776;28;20669;-74
2021/10/16 01:08:02;;;;;;;13.45;3.83;;;12.50;95.60;;;;;;5059002;28;20227;-75
2021/10/16 01:10:28;;;;;;;17.25;4.18;;;12.50;95.40;;;;;;5048611;28;20193;-76
2021/10/16 01:12:53;;;;;;;16.58;4.07;;;12.50;95.30;;;;;;5078689;28;20185;-76
2021/10/16 01:15:22;;;;;;;18.65;4.45;;;12.50;95.20;;;;;;5066680;28;20183;-77
2021/10/16 01:17:48;;;;;;;13.20;4.18;;;12.50;95.10;;;;;;5078927;28;20189;-75
2021/10/16 01:20:21;;;;;;;18.33;3.90;;;12.50;95.10;;;;;;5064664;28;20190;-75
2021/10/16 01:22:51;;;;;;;15.18;3.45;;;12.50;95.00;;;;;;5059775;28;20186;-77
2021/10/16 01:25:19;;;;;;;14.00;3.47;;;12.50;94.80;;;;;;5060930;28;20261;-77
2021/10/16 01:27:46;;;;;;;16.15;3.72;;;12.50;94.70;;;;;;5059762;28;20236;-77
2021/10/16 01:30:15;;;;;;;15.43;3.67;;;12.50;94.70;;;;;;5062612;28;20918;-76
2021/10/16 01:32:42;;;;;;;15.82;3.50;;;12.50;94.60;;;;;;5073575;28;20187;-76
2021/10/16 01:35:10;;;;;;;14.23;4.00;;;12.50;94.60;;;;;;5062629;28;20703;-74
2021/10/16 01:37:39;;;;;;;12.07;3.33;;;12.50;94.50;;;;;;5063125;28;20187;-75
2021/10/16 01:40:05;;;;;;;14.75;3.97;;;12.40;94.50;;;;;;5046015;28;20186;-75
2021/10/16 01:42:35;;;;;;;17.83;4.57;;;12.40;94.60;;;;;;5043929;28;20190;-75
2021/10/16 01:45:03;;;;;;;15.45;4.03;;;12.40;94.60;;;;;;5047602;28;20530;-76
2021/10/16 01:47:29;;;;;;;14.95;3.63;;;12.30;94.70;;;;;;5060347;28;20284;-76
2021/10/16 01:49:56;;;;;;;14.60;4.30;;;12.30;94.80;;;;;;5061652;28;20210;-76
2021/10/16 01:52:22;;;;;;;15.15;4.32;;;12.30;94.90;;;;;;5040683;28;20864;-75
2021/10/16 01:54:50;;;;;;;13.80;4.20;;;12.80;95.10;;;;;;5047291;28;20206;-76
2021/10/16 01:57:16;;;;;;;18.98;4.00;;;12.60;95.10;;;;;;5061251;28;20190;-75
2021/10/16 01:59:51;;;;;;;22.67;4.22;;;12.50;95.40;;;;;;5046070;28;20952;-75
2021/10/16 02:02:22;;;;;;;16.38;4.13;;;12.40;95.40;;;;;;5062069;28;20183;-74
2021/10/16 02:05:07;;;;;;;14.43;4.35;;;12.40;95.60;;;;;;5047518;28;20197;-76
2021/10/16 02:07:33;;;;;;;16.50;4.20;;;12.40;95.60;;;;;;5076190;28;20195;-75
2021/10/16 02:10:00;;;;;;;17.33;4.63;;;12.40;95.70;;;;;;5047794;28;20570;-75
2021/10/16 02:12:26;;;;;;;16.52;4.20;;;12.40;95.80;;;;;;5061528;28;20197;-75
2021/10/16 02:14:52;;;;;;;16.63;4.20;;;12.40;95.90;;;;;;5038571;28;20209;-75
2021/10/16 02:17:21;;;;;;;18.63;4.30;;;12.40;95.90;;;;;;5078293;28;20317;-75
2021/10/16 02:19:47;;;;;;;22.92;4.55;;;12.40;96.00;;;;;;5062055;28;20309;-76
2021/10/16 02:22:12;;;;;;;15.43;4.00;;;12.40;96.00;;;;;;5042720;28;20256;-75
2021/10/16 02:24:39;;;;;;;12.95;4.13;;;12.40;96.10;;;;;;5074435;28;20213;-76
2021/10/16 02:27:05;;;;;;;14.25;4.13;;;12.40;96.20;;;;;;5043472;28;20223;-74
2021/10/16 02:29:30;;;;;;;16.92;4.38;;;12.40;96.20;;;;;;5080310;28;20323;-75
2021/10/16 02:32:06;;;;;;;14.77;4.32;;;12.40;96.30;;;;;;5042178;28;20650;-74
2021/10/16 02:34:34;;;;;;;13.50;4.13;;;12.40;96.30;;;;;;5058846;28;20571;-74
2021/10/16 02:37:04;;;;;;;14.05;3.70;;;12.40;96.30;;;;;;5042758;28;20183;-73
2021/10/16 02:39:31;;;;;;;14.43;4.40;;;12.30;96.30;;;;;;5062252;28;20833;-75
2021/10/16 02:41:59;;;;;;;22.42;4.82;;;12.30;96.30;;;;;;5045372;28;20193;-76
2021/10/16 02:44:27;;;;;;;10.65;3.88;;;12.30;96.40;;;;;;5051780;28;20189;-75
2021/10/16 02:46:53;;;;;;;16.65;3.78;;;12.30;96.40;;;;;;5065161;28;20558;-74
2021/10/16 02:49:19;;;;;;;10.80;3.65;;;12.30;96.40;;;;;;5046707;28;20193;-73
2021/10/16 02:51:45;;;;;;;19.17;4.00;;;12.20;96.40;;;;;;5050511;28;20193;-75
2021/10/16 02:54:11;;;;;;;20.67;4.07;;;12.20;96.70;;;;;;5074600;28;20203;-75
2021/10/16 02:56:37;;;;;;;10.93;3.47;;;12.30;96.50;;;;;;5051568;28;20552;-75
2021/10/16 02:59:10;;;;;;;17.35;3.42;;;12.20;96.40;;;;;;5047354;28;20221;-74
2021/10/16 03:01:44;;;;;;;12.73;3.95;;;12.30;96.40;;;;;;5051418;28;20197;-74
2021/10/16 03:04:10;;;;;;;9.35;3.45;;;12.20;96.30;;;;;;5061068;28;20231;-73
2021/10/16 03:06:37;;;;;;;11.55;3.95;;;12.20;96.30;;;;;;5045862;28;20182;-74
2021/10/16 03:09:03;;;;;;;11.18;4.18;;;12.20;96.30;;;;;;5047210;28;20669;-75
2021/10/16 03:11:32;;;;;;;16.13;3.85;;;12.20;96.40;;;;;;5068223;28;20217;-74
2021/10/16 03:14:01;;;;;;;19.02;3.97;;;12.20;96.40;;;;;;5058141;28;20243;-75
2021/10/16 03:16:28;;;;;;;14.02;3.90;;;12.20;96.40;;;;;;5069098;28;20183;-74
2021/10/16 03:18:55;;;;;;;13.35;4.28;;;12.30;96.50;;;;;;5046625;28;20780;-76
2021/10/16 03:21:21;;;;;;;14.40;4.40;;;12.30;96.50;;;;;;5068621;28;20183;-75
2021/10/16 03:23:47;;;;;;;12.43;3.35;;;12.20;96.60;;;;;;5043878;28;20238;-74
2021/10/16 03:26:14;;;;;;;13.77;3.30;;;12.20;96.90;;;;;;5049340;28;20191;-74
2021/10/16 03:28:40;;;;;;;13.05;3.70;;;12.20;96.60;;;;;;5048974;28;20197;-73
2021/10/16 03:31:06;;;;;;;14.00;3.97;;;12.20;96.70;;;;;;5084182;28;20206;-74
2021/10/16 03:33:32;;;;;;;22.85;3.90;;;12.20;96.70;;;;;;5044686;28;20221;-74
2021/10/16 03:35:58;;;;;;;18.10;3.70;;;12.10;96.70;;;;;;5069352;28;20264;-74
2021/10/16 03:38:24;;;;;;;17.55;3.75;;;12.00;96.80;;;;;;5062499;28;20232;-77
2021/10/16 03:40:49;;;;;;;12.80;3.88;;;12.00;97.00;;;;;;5048540;28;20598;-76
2021/10/16 03:43:15;;;;;;;15.10;4.03;;;12.00;97.00;;;;;;5061818;28;20513;-76
2021/10/16 03:45:42;;;;;;;14.52;3.45;;;11.90;97.10;;;;;;5050378;28;20209;-76
2021/10/16 03:48:08;;;;;;;14.13;3.60;;;11.90;97.20;;;;;;5082271;28;20662;-76
2021/10/16 03:50:34;;;;;;;18.75;3.88;;;11.90;97.30;;;;;;5067816;28;21016;-75
2021/10/16 03:53:01;;;;;;;21.15;4.13;;;11.80;97.30;;;;;;5047031;28;20204;-76
2021/10/16 03:55:28;;;;;;;14.05;3.75;;;11.80;97.40;;;;;;5050055;28;20175;-76
2021/10/16 03:57:53;;;;;;;16.40;3.92;;;11.70;97.40;;;;;;5064792;28;20187;-75
2021/10/16 04:00:21;;;;;;;12.77;3.97;;;11.70;97.40;;;;;;5063502;28;20175;-74
2021/10/16 04:02:57;;;;;;;14.35;3.97;;;11.60;97.50;;;;;;5048082;28;20229;-74
2021/10/16 04:05:24;;;;;;;12.50;3.72;;;11.60;97.50;;;;;;5081014;28;20253;-74
2021/10/16 04:07:50;;;;;;;18.23;4.53;;;11.50;97.60;;;;;;5045456;28;20419;-74
2021/10/16 04:10:16;;;;;;;14.05;4.43;;;12.00;98.20;;;;;;5065821;28;20395;-75
2021/10/16 04:12:42;;;;;;;16.00;4.20;;;12.30;98.10;;;;;;5044489;28;20273;-74
2021/10/16 04:15:09;;;;;;;11.25;3.78;;;12.00;98.10;;;;;;5046018;28;20746;-77
2021/10/16 04:17:35;;;;;;;14.77;4.10;;;11.90;98.40;;;;;;5055569;28;20500;-77
2021/10/16 04:20:02;;;;;;;13.52;4.20;;;12.20;98.30;;;;;;5064569;28;20396;-74
2021/10/16 04:22:31;;;;;;;14.63;4.30;;;12.40;98.00;;;;;;5044193;28;20412;-75
2021/10/16 04:24:57;;;;;;;12.80;4.50;;;12.50;97.70;;;;;;5073593;28;20460;-74
2021/10/16 04:27:24;;;;;;;14.47;4.60;;;12.60;97.40;;;;;;5040345;28;20423;-77
2021/10/16 04:29:59;;;;;;;12.98;4.32;;;12.60;97.20;;;;;;5045659;28;20408;-76
2021/10/16 04:32:35;;;;;;;13.32;4.30;;;12.60;97.70;;;;;;5045620;28;20903;-77
2021/10/16 04:35:06;;;;;;;13.52;4.18;;;12.70;97.30;;;;;;5078712;28;20403;-76
2021/10/16 04:37:32;;;;;;;14.30;4.00;;;12.70;97.20;;;;;;5079283;28;20411;-81
2021/10/16 04:39:57;;;;;;;11.73;4.00;;;12.80;97.20;;;;;;5048720;28;20556;-76
2021/10/16 04:42:23;;;;;;;15.93;4.28;;;12.40;97.50;;;;;;5077824;28;20254;-76
2021/10/16 04:44:49;;;;;;;14.82;3.97;;;12.20;97.90;;;;;;5084117;28;20186;-73
2021/10/16 04:47:15;;;;;;;13.63;4.10;;;12.00;98.10;;;;;;5043827;28;20187;-74
2021/10/16 04:49:41;;;;;;;17.73;4.03;;;11.90;98.20;;;;;;5044767;28;20186;-78
2021/10/16 04:52:10;;;;;;;10.77;3.80;;;11.80;98.40;;;;;;5041100;28;20190;-78
2021/10/16 04:54:36;;;;;;;12.27;4.05;;;11.70;98.40;;;;;;5061945;28;20216;-78
2021/10/16 04:57:02;;;;;;;15.40;4.07;;;11.60;98.40;;;;;;5045764;28;20285;-75
2021/10/16 04:59:30;;;;;;;18.63;3.83;;;11.60;98.50;;;;;;5048647;28;20178;-78
2021/10/16 05:01:56;;;;;;;14.68;4.18;;;11.50;98.50;;;;;;5044635;28;20547;-77
2021/10/16 05:04:22;;;;;;;15.75;3.83;;;11.40;98.60;;;;;;5013155;28;20235;-78
2021/10/16 05:06:50;;;;;;;15.10;4.22;;;11.40;98.60;;;;;;5008599;28;20268;-79
2021/10/16 05:09:16;;;;;;;9.82;3.63;;;11.40;99.00;;;;;;5015028;28;20369;-79
2021/10/16 05:11:42;;;;;;;20.10;5.40;;;11.30;98.70;;;;;;5022896;28;20184;-79
2021/10/16 05:14:09;;;;;;;18.30;5.38;;;11.30;98.70;;;;;;5017951;28;20212;-80
2021/10/16 05:16:35;;;;;;;15.75;5.07;;;11.30;98.80;;;;;;5035824;28;20275;-79
2021/10/16 05:19:01;;;;;;;16.25;4.70;;;11.30;98.90;;;;;;5011891;28;20299;-79
2021/10/16 05:21:28;;;;;;;19.73;5.18;;;11.30;99.00;;;;;;5020626;28;20195;-79
2021/10/16 05:23:54;;;;;;;14.18;4.95;;;11.30;99.10;;;;;;5027171;28;20516;-78
2021/10/16 05:26:20;;;;;;;20.75;5.68;;;11.30;99.20;;;;;;5016904;28;20180;-78
2021/10/16 05:28:46;;;;;;;14.18;4.80;;;11.30;99.30;;;;;;5047575;28;20366;-80
2021/10/16 05:31:12;;;;;;;14.15;4.60;;;11.30;99.30;;;;;;5012477;28;20306;-70
2021/10/16 05:33:38;;;;;;;13.05;4.20;;;11.30;99.40;;;;;;5007494;28;20205;-79
2021/10/16 05:36:04;;;;;;;12.18;4.22;;;11.30;99.50;;;;;;5032670;28;20184;-77
2021/10/16 05:38:30;;;;;;;16.50;4.53;;;11.30;99.50;;;;;;5026125;28;20193;-79
2021/10/16 05:40:56;;;;;;;20.02;4.40;;;11.30;99.50;;;;;;5027635;28;20189;-76
2021/10/16 05:43:23;;;;;;;12.07;4.28;;;11.30;99.60;;;;;;5028075;28;20547;-76
2021/10/16 05:45:53;;;;;;;12.45;4.00;;;11.30;99.60;;;;;;5024561;28;20179;-76
2021/10/16 05:48:19;;;;;;;16.05;4.72;;;11.30;99.70;;;;;;5013682;28;20200;-76
2021/10/16 05:50:45;;;;;;;12.88;3.70;;;11.40;99.80;;;;;;5016787;28;20188;-75
2021/10/16 05:53:13;;;;;;;17.80;4.38;;;11.30;99.80;;;;;;5040874;28;20180;-76
2021/10/16 05:55:39;;;;;;;16.75;4.45;;;11.40;99.90;;;;;;5010948;28;20187;-77
2021/10/16 05:58:06;;;;;;;23.75;4.38;;;11.40;99.90;;;;;;5045880;28;20189;-80
2021/10/16 06:00:32;;;;;;;13.85;4.13;;;11.40;99.90;;;;;;5025067;28;21040;-79
2021/10/16 06:02:59;;;;;;;14.65;4.22;;;11.40;99.90;;;;;;5010241;28;20688;-78
2021/10/16 06:05:35;;;;;;;14.35;4.20;;;11.40;99.90;;;;;;5048291;28;20933;-79
2021/10/16 06:08:01;;;;;;;17.08;4.63;;;11.40;99.90;;;;;;4995454;28;20199;-80
2021/10/16 06:10:27;;;;;;;13.23;3.72;;;11.40;99.90;;;;;;5030729;28;20180;-79
2021/10/16 06:12:53;;;;;;;24.42;3.85;;;11.30;99.90;;;;;;5012377;28;20226;-79
2021/10/16 06:15:19;;;;;;;14.15;3.00;;;11.30;99.90;;;;;;5050868;28;20280;-75
2021/10/16 06:17:45;;;;;;;13.05;3.60;;;11.30;99.90;;;;;;5056591;28;20187;-79
2021/10/16 06:20:13;;;;;;;15.63;3.47;;;11.30;99.90;;;;;;5052466;28;20835;-77
2021/10/16 06:22:39;;;;;;;15.68;3.47;;;11.30;99.90;;;;;;5044456;28;20179;-80
2021/10/16 06:25:06;;;;;;;14.63;3.17;;;11.30;99.90;;;;;;5022170;28;20191;-77
2021/10/16 06:27:32;;;;;;;19.13;3.70;;;11.30;99.90;;;;;;5056066;28;20187;-77
2021/10/16 06:29:58;;;;;;;17.15;3.50;;;11.20;99.80;;;;;;5030483;28;20183;-78
2021/10/16 06:32:24;;;;;;;14.70;3.67;;;11.30;99.80;;;;;;5044125;28;20183;-79
2021/10/16 06:34:52;;;;;;;17.33;4.10;;;11.20;99.70;;;;;;5059426;28;20204;-75
2021/10/16 06:37:18;;;;;;;13.77;2.97;;;11.20;99.70;;;;;;5038323;28;20271;-75
2021/10/16 06:39:44;;;;;;;16.95;3.28;;;11.20;99.70;;;;;;5021946;28;20556;-77
2021/10/16 06:42:09;;;;;;;15.57;3.67;;;11.20;99.60;;;;;;5054130;28;20203;-79
2021/10/16 06:44:43;;;;;;;18.83;3.45;;;11.30;99.60;;;;;;5025041;28;20735;-71
2021/10/16 06:47:26;;;;;;;15.38;3.15;;;11.30;99.50;;;;;;5036313;28;20187;-73
2021/10/16 06:49:54;;;;;;;9.50;2.92;;;11.30;99.40;;;;;;5022242;28;20188;-76
2021/10/16 06:52:19;;;;;;;13.02;3.15;;;11.30;99.40;;;;;;5054392;28;20188;-77
2021/10/16 06:54:45;;;;;;;10.68;3.25;;;11.30;99.30;;;;;;5048940;28;20204;-76
2021/10/16 06:57:12;;;;;;;12.05;3.13;;;11.30;99.30;;;;;;5058343;28;20232;-75
2021/10/16 06:59:39;;;;;;;20.63;4.30;;;11.30;99.20;;;;;;5026303;28;20176;-77
2021/10/16 07:02:07;;;;;;;18.23;4.07;;;11.30;99.10;;;;;;5039687;28;20188;-75
2021/10/16 07:04:44;;;;;;;17.67;3.45;;;11.30;99.10;;;;;;5037340;28;20642;-75
2021/10/16 07:07:11;;;;;;;19.13;4.00;;;11.40;99.10;;;;;;5062112;28;20188;-76
2021/10/16 07:09:43;;;;;;;14.82;3.50;;;11.40;99.10;;;;;;5085368;28;20812;-75
2021/10/16 07:12:09;;;;;;;13.73;3.53;;;11.40;99.10;;;;;;5066049;28;20191;-77
2021/10/16 07:14:35;;;;;;;14.32;3.78;;;11.40;99.00;;;;;;5071419;28;20229;-77
2021/10/16 07:17:05;;;;;;;20.27;4.05;;;11.40;99.00;;;;;;5076384;28;20372;-75
2021/10/16 07:19:31;;;;;;;16.63;4.07;;;11.50;99.10;;;;;;5053027;28;20265;-76
2021/10/16 07:21:57;;;;;;;10.57;3.10;;;11.50;99.00;;;;;;5066988;28;20680;-75
2021/10/16 07:24:23;;;;;;;13.13;3.42;;;11.50;98.90;;;;;;5058928;28;20187;-76
2021/10/16 07:26:49;;;;;;;13.07;3.70;;;11.50;98.90;;;;;;5063867;28;20213;-75
2021/10/16 07:29:15;;;;;;;14.63;3.25;;;11.50;98.90;;;;;;5085079;28;20190;-75
2021/10/16 07:31:41;;;;;;;14.40;3.50;;;11.50;98.90;;;;;;5066330;28;20315;-75
2021/10/16 07:34:06;;;;;;;15.10;3.85;;;11.60;98.90;;;;;;5059752;28;20207;-77
2021/10/16 07:36:34;;;;;;;19.55;4.32;;;11.60;98.90;;;;;;5049652;28;20627;-75
2021/10/16 07:39:03;;;;;;;17.45;3.97;;;11.60;98.80;;;;;;5042113;28;20183;-76
2021/10/16 07:41:29;;;;;;;17.17;3.92;;;11.60;98.80;;;;;;5065410;28;20190;-76
2021/10/16 07:43:55;;;;;;;17.55;4.03;;;11.60;98.80;;;;;;5062110;28;20194;-76
2021/10/16 07:46:21;;;;;;;13.23;4.00;;;11.60;98.90;;;;;;5068784;28;20232;-76
2021/10/16 07:48:47;;;;;;;22.38;6.05;;;11.60;98.80;;;;;;5046646;28;20191;-79
2021/10/16 07:51:12;;;;;;;19.90;3.97;;;11.60;98.80;;;;;;5084923;28;20655;-77
2021/10/16 07:53:38;;;;;;;26.13;4.55;;;11.60;98.80;;;;;;5062718;28;20393;-77
2021/10/16 07:56:04;;;;;;;16.75;4.68;;;11.60;98.80;;;;;;5047986;28;20191;-78
2021/10/16 07:58:29;;;;;;;15.80;3.80;;;11.70;98.80;;;;;;5049150;28;20199;-77
2021/10/16 08:00:55;;;;;;;19.55;4.07;;;11.70;98.80;;;;;;5047705;28;20329;-78
2021/10/16 08:03:21;;;;;;;16.45;3.45;;;11.70;98.80;;;;;;5067714;28;20214;-79
2021/10/16 08:05:47;;;;;;;19.70;4.00;;;11.70;98.80;;;;;;5067079;28;20639;-77
2021/10/16 08:08:13;;;;;;;16.33;4.53;;;11.80;98.80;;;;;;5067976;28;20183;-79
2021/10/16 08:10:39;;;;;;;16.88;4.30;;;11.80;98.70;;;;;;5049340;28;21025;-78
2021/10/16 08:13:05;;;;;;;14.02;3.33;;;11.80;98.60;;;;;;5044474;28;20293;-76
2021/10/16 08:15:31;;;;;;;13.60;3.60;;;11.90;98.60;;;;;;5067140;28;20589;-77
2021/10/16 08:17:57;;;;;;;20.23;3.78;;;11.90;98.60;;;;;;5063305;28;20183;-77
2021/10/16 08:20:23;;;;;;;14.05;3.70;;;12.00;98.50;;;;;;5067848;28;20183;-77
2021/10/16 08:22:48;;;;;;;13.73;3.78;;;12.00;98.40;;;;;;5042299;28;20675;-78
2021/10/16 08:25:14;;;;;;;12.80;3.53;;;12.10;98.40;;;;;;5061830;28;20252;-77
2021/10/16 08:27:40;;;;;;;20.17;4.22;;;12.10;98.30;;;;;;5062242;28;20899;-78
2021/10/16 08:30:09;;;;;;;15.25;3.88;;;12.70;97.30;;;;;;5050151;28;20485;-75
2021/10/16 08:32:36;;;;;;;12.35;3.83;;;13.00;96.40;;;;;;5063665;28;20186;-77
2021/10/16 08:35:02;;;;;;;12.95;3.75;;;12.70;96.90;;;;;;5067905;28;20214;-76
2021/10/16 08:37:27;;;;;;;15.90;3.70;;;12.60;97.30;;;;;;5059588;28;20647;-78
2021/10/16 08:39:53;;;;;;;12.05;3.67;;;12.50;97.50;;;;;;5047596;28;20185;-77
2021/10/16 08:42:19;;;;;;;13.43;4.03;;;12.40;97.60;;;;;;5043798;28;20190;-76
2021/10/16 08:44:45;;;;;;;17.02;3.85;;;12.40;97.70;;;;;;5066638;28;20252;-78
2021/10/16 08:47:11;;;;;;;16.90;3.72;;;12.40;97.70;;;;;;5059653;28;20188;-77
2021/10/16 08:49:38;;;;;;;20.33;4.18;;;12.30;97.80;;;;;;5068531;28;20190;-77
2021/10/16 08:52:04;;;;;;;17.55;4.00;;;12.30;97.80;;;;;;5040925;28;20211;-77
2021/10/16 08:54:30;;;;;;;13.93;3.35;;;12.30;97.90;;;;;;5066598;28;20207;-78
2021/10/16 08:56:56;;;;;;;16.98;3.83;;;12.40;97.90;;;;;;5061478;28;20179;-77
2021/10/16 08:59:21;;;;;;;14.95;3.95;;;12.40;97.90;;;;;;5050440;28;20278;-77
2021/10/16 09:02:04;;;;;;;11.15;3.45;;;12.40;97.90;;;;;;5045543;28;20289;-76
2021/10/16 09:04:32;;;;;;;16.48;3.90;;;12.40;98.00;;;;;;5054355;28;20275;-77
2021/10/16 09:06:58;;;;;;;23.83;4.40;;;12.40;98.00;;;;;;5062119;28;20210;-76
2021/10/16 09:09:25;;;;;;;14.93;3.75;;;12.50;98.00;;;;;;5049922;28;20247;-77
2021/10/16 09:11:54;;;;;;;18.35;4.13;;;12.50;98.00;;;;;;5047668;28;20187;-76
2021/10/16 09:14:21;;;;;;;16.40;4.07;;;12.60;98.10;;;;;;5061932;28;20212;-77
2021/10/16 09:16:57;;;;;;;15.93;4.00;;;12.60;98.00;;;;;;5048149;28;20222;-76
2021/10/16 09:19:23;;;;;;;17.90;4.40;;;12.60;98.00;;;;;;5061819;28;20193;-78
2021/10/16 09:21:53;;;;;;;12.77;3.38;;;12.70;98.00;;;;;;5060004;28;20167;-77
2021/10/16 09:24:29;;;;;;;20.35;3.50;;;12.70;97.90;;;;;;5059017;28;20599;-76
2021/10/16 09:26:59;;;;;;;14.45;3.60;;;12.70;97.90;;;;;;5060609;28;20611;-78
2021/10/16 09:29:31;;;;;;;21.77;4.32;;;12.70;97.90;;;;;;5063094;28;20205;-76
2021/10/16 09:32:04;;;;;;;21.05;4.10;;;12.80;97.80;;;;;;5062949;28;20267;-76
2021/10/16 09:34:39;;;;;;;14.23;3.17;;;12.80;97.80;;;;;;5059678;28;20733;-77
2021/10/16 09:37:18;;;;;;;18.10;4.10;;;12.90;97.80;;;;;;5040577;28;20923;-76
2021/10/16 09:39:50;;;;;;;13.25;3.20;;;13.00;97.70;;;;;;5066910;28;20611;-76
2021/10/16 09:42:39;;;;;;;16.67;3.50;;;13.00;97.60;;;;;;5060362;28;20631;-70
2021/10/16 09:45:09;;;;;;;18.75;3.55;;;13.00;97.40;;;;;;5063553;28;20224;-77
2021/10/16 09:47:35;;;;;;;15.25;3.97;;;13.10;97.40;;;;;;5047060;28;20232;-76
2021/10/16 09:50:06;;;;;;;15.20;3.50;;;13.10;97.30;;;;;;5049415;28;20186;-74
2021/10/16 09:52:52;;;;;;;16.13;3.45;;;13.10;97.20;;;;;;5059015;28;20674;-77
2021/10/16 09:55:19;;;;;;;20.65;3.28;;;13.10;97.10;;;;;;5064247;28;20314;-76
2021/10/16 09:57:46;;;;;;;17.42;3.20;;;13.10;97.00;;;;;;5046411;28;21033;-75
2021/10/16 10:00:14;;;;;;;14.00;3.03;;;13.10;97.00;;;;;;5065099;28;20712;-75
2021/10/16 10:02:40;;;;;;;14.35;3.22;;;13.10;96.90;;;;;;5064297;28;20202;-78
2021/10/16 10:05:07;;;;;;;14.60;3.10;;;13.10;96.90;;;;;;5066323;28;20190;-75
2021/10/16 10:07:34;;;;;;;10.18;3.25;;;13.10;96.80;;;;;;5045772;28;20234;-77
2021/10/16 10:10:01;;;;;;;15.32;2.92;;;13.10;96.80;;;;;;5047898;28;20326;-79
2021/10/16 10:12:27;;;;;;;18.67;3.58;;;13.10;96.80;;;;;;5044787;28;20183;-79
2021/10/16 10:14:54;;;;;;;13.15;2.97;;;13.10;96.80;;;;;;5066375;28;20211;-77
2021/10/16 10:17:29;;;;;;;17.45;3.00;;;13.10;96.70;;;;;;5061004;28;20245;-76
2021/10/16 10:20:02;;;;;;;18.75;2.85;;;13.10;96.60;;;;;;5065012;28;20247;-75
2021/10/16 10:22:34;;;;;;;20.13;3.25;;;13.20;96.50;;;;;;5060781;28;20186;-77
2021/10/16 10:25:01;;;;;;;15.25;3.33;;;13.20;96.50;;;;;;5062513;28;20594;-76
2021/10/16 10:27:27;;;;;;;9.05;2.60;;;13.20;96.50;;;;;;5057020;28;20217;-77
2021/10/16 10:29:54;;;;;;;10.40;2.95;;;13.30;96.50;;;;;;5065113;28;20639;-76
2021/10/16 10:32:23;;;;;;;14.00;2.72;;;13.30;96.40;;;;;;5062037;28;20191;-76
2021/10/16 10:34:56;;;;;;;18.17;3.00;;;13.30;96.30;;;;;;5045276;28;20657;-78
2021/10/16 10:37:30;;;;;;;8.40;2.55;;;13.40;96.30;;;;;;5059241;28;20191;-77
2021/10/16 10:39:57;;;;;;;15.75;3.08;;;13.60;96.30;;;;;;5062657;28;20414;-76
2021/10/16 10:42:22;;;;;;;11.20;3.17;;;15.00;93.80;;;;;;5041867;28;20413;-77
2021/10/16 10:44:48;;;;;;;;;;;16.90;90.10;;;;;;5063605;28;20016;-77
2021/10/16 10:47:19;;;;;;;;;;;17.20;91.30;;;;;;5060898;28;19975;-77
2021/10/16 10:49:46;;;;;;;;;;;17.60;92.00;;;;;;5065031;28;19916;-78
2021/10/16 10:52:12;;;;;;;;;;;18.20;92.10;;;;;;5062564;28;20697;-77
2021/10/16 10:54:38;;;;;;;11.60;2.38;;;18.90;92.10;;;;;;5051896;28;20196;-78
2021/10/16 10:57:04;;;;;;;13.07;2.75;;;19.70;91.50;;;;;;5064213;28;20414;-76
2021/10/16 10:59:53;;;;;;;10.45;2.55;;;22.20;62.10;;;;;;5066159;28;20405;-77
2021/10/16 11:02:30;;;;;;;10.68;2.17;;;23.50;55.80;;;;;;5062026;28;20257;-78
2021/10/16 11:04:56;;;;;;;11.07;2.30;;;23.00;59.20;;;;;;5047831;28;20264;-78
2021/10/16 11:07:54;;;;;;;9.65;1.92;;;22.80;60.40;;;;;;5066021;28;20192;-78
2021/10/16 11:10:19;;;;;;;9.50;2.00;;;22.70;60.50;;;;;;5067578;28;20214;-77
2021/10/16 11:12:45;;;;;;;11.23;2.40;;;22.70;60.10;;;;;;5050814;28;20657;-77
2021/10/16 11:15:12;;;;;;;11.32;2.58;;;22.70;59.50;;;;;;5053608;28;20693;-77
2021/10/16 11:17:46;;;;;;;13.05;2.45;;;22.70;59.70;;;;;;5052077;28;20182;-78
2021/10/16 11:20:25;;;;;;;14.98;2.53;;;22.60;58.40;;;;;;5053362;28;20273;-76
2021/10/16 11:22:53;;;;;;;;;;;22.40;57.70;;;;;;5061383;28;20024;-78
2021/10/16 11:25:29;;;;;;;;;;;21.80;58.30;;;;;;5059583;28;19908;-77
2021/10/16 11:28:09;;;;;;;8.00;2.00;;;21.20;61.70;;;;;;5066101;28;20193;-78
2021/10/16 11:30:42;;;;;;;9.32;2.50;;;20.70;62.10;;;;;;5066119;28;20553;-77
2021/10/16 11:33:19;;;;;;;9.93;2.30;;;21.10;54.90;;;;;;5064929;28;20767;-76
2021/10/16 11:35:45;;;;;;;;;;;21.00;53.70;;;;;;5066490;28;20119;-77
2021/10/16 11:38:12;;;;;;;;;;;20.00;56.30;;;;;;5048988;28;19915;-76
2021/10/16 11:40:38;;;;;;;;;;;19.30;58.90;;;;;;5046085;28;20373;-76
2021/10/16 11:43:25;;;;;;;5.55;1.80;;;18.90;60.10;;;;;;5063629;28;20402;-77
2021/10/16 11:45:54;;;;;;;7.47;1.90;;;18.70;60.30;;;;;;5067808;28;20399;-77
2021/10/16 11:48:22;;;;;;;6.53;1.70;;;19.30;54.90;;;;;;5048660;28;20771;-76
2021/10/16 11:50:50;;;;;;;8.60;1.90;;;19.50;53.40;;;;;;5063925;28;20425;-76
2021/10/16 11:53:24;;;;;;;9.68;1.73;;;19.90;52.60;;;;;;5082151;28;20411;-77
2021/10/16 11:55:58;;;;;;;7.35;1.77;;;20.60;51.90;;;;;;5066370;28;20412;-76
2021/10/16 11:58:27;;;;;;;10.43;2.25;;;21.40;49.80;;;;;;5060740;28;20412;-78
2021/10/16 12:00:55;;;;;;;9.23;1.75;;;22.30;47.30;;;;;;5066709;28;20452;-75
2021/10/16 12:03:44;;;;;;;8.30;1.80;;;23.10;45.80;;;;;;5047606;28;20896;-78
2021/10/16 12:06:14;;;;;;;;;;;23.70;45.00;;;;;;5043210;28;20101;-78
2021/10/16 12:08:45;;;;;;;;;;;23.30;47.60;;;;;;5049604;28;20035;-77
2021/10/16 12:11:17;;;;;;;;;;;23.00;47.50;;;;;;5068477;28;19966;-78
2021/10/16 12:13:44;;;;;;;;;;;22.80;50.10;;;;;;5062992;28;19916;-73
2021/10/16 12:16:09;;;;;;;;;;;22.60;49.60;;;;;;5049421;28;19909;-78
2021/10/16 12:18:35;;;;;;;;;;;22.60;50.20;;;;;;5060431;28;19920;-78
2021/10/16 12:21:01;;;;;;;;;;;22.50;49.10;;;;;;5068140;28;19974;-78
2021/10/16 12:23:47;;;;;;;;;;;22.30;48.50;;;;;;5049699;28;19912;-78
2021/10/16 12:26:21;;;;;;;;;;;22.20;49.90;;;;;;5050445;28;20317;-78
2021/10/16 12:28:47;;;;;;;;;;;22.10;47.70;;;;;;5065709;28;19912;-79
2021/10/16 12:31:13;;;;;;;;;;;22.10;52.50;;;;;;5051566;28;20403;-77
2021/10/16 12:34:01;;;;;;;5.95;1.48;;;22.10;51.80;;;;;;5069089;28;20214;-78
2021/10/16 12:36:31;;;;;;;;;;;22.00;52.70;;;;;;5066152;28;20032;-78
2021/10/16 12:38:57;;;;;;;;;;;21.70;51.70;;;;;;5065231;28;19966;-77
2021/10/16 12:41:33;;;;;;;;;;;21.40;53.10;;;;;;5068454;28;19920;-79
2021/10/16 12:44:15;;;;;;;;;;;21.20;51.10;;;;;;5063315;28;19916;-77
2021/10/16 12:46:41;;;;;;;;;;;21.10;51.70;;;;;;5081563;28;19908;-76
2021/10/16 12:49:07;;;;;;;;;;;21.10;53.20;;;;;;5062061;28;19912;-74
2021/10/16 12:51:36;;;;;;;;;;;21.00;52.30;;;;;;5064385;28;19912;-74